West Glacier, MT

3:39 PM MST on December 27, 2014 (GMT -0700)
Blankenship | Change Station
CLOSE
Current Station
Personal Weather Station
Location: Columbia Falls, MT
Elevation: 3218 ft
Nearby Weather Stations
Active Advisory: Winter Storm Warning

Elev 3218 ft 48.47 °N, 114.11 °W | Updated 3 minutes ago

Snow
Snow
30.7 °F
Feels Like 31 °F
N
0.0
Wind Variable Wind from WSW
Gusts 0.0 mph

Today
High -- | Low -- °F
--% Chance of Precip.
Yesterday
High -- | Low -- °F
Precip. -- in
8:27 AM 4:45 PM
Waxing Crescent, 41% visible
Pressure 30.00 in
Visibility 10.0 miles
Clouds Clear
Windchill 31 °F
Dew Point 27 °F
Humidity 86%
Rainfall 0.00 in
Snow Depth Not available.
UV 1 out of 12
Pollen .10 out of 12
Air Quality Not available.
Flu Activity Not available.
METAR KCTB 272156Z AUTO 25009KT 10SM CLR M02/M07 A2986 RMK AO2 SLP157 T10221072

More Conditions Fewer Conditions

Pressure 30.00 in
Visibility 10.0 miles
Clouds Clear
Windchill 31 °F
Dew Point 27 °F
Humidity 86%
Rainfall 0.00 in
Snow Depth Not available.
UV 1 out of 12
Pollen .10 out of 12
Air Quality Not available.
Flu Activity Not available.
METAR KCTB 272156Z AUTO 25009KT 10SM CLR M02/M07 A2986 RMK AO2 SLP157 T10221072

More Conditions Fewer Conditions

10-Day Weather Forecast

Almanac

Astronomy

Dec. 27, 2014 Rise Set
Actual Time
Civil Twilight
Nautical Twilight
Astronomical Twilight
Moon
Length of Visible Light
Length of Day
Tomorrow will be .
, % of the Moon is Illuminated

Today's Extremes

State Highs State Lows

Community

WunderPhotos

Upload Photos

1,781,095 photos uploaded!

WunderBlogs® & News

Nearby

Air Quality

  Air Quality AQ Index Pollutant
Not available.

Snow Depth

Station Depth Elevation

Earthquake Activity

City Distance Mag. Time & Date
Minimum magnitude displayed is 2.5.

Coastal Water Temperatures

Place Temperature

Nearby Weather Stations